sensor_id;sensor_type;location;lat;lon;timestamp;P1;durP1;ratioP1;P2;durP2;ratioP2
11486;SDS011;10510;47.942;9.442;2023-05-16T00:00:48;12.70;;;6.82;;
11486;SDS011;10510;47.942;9.442;2023-05-16T00:02:52;10.95;;;6.60;;
11486;SDS011;10510;47.942;9.442;2023-05-16T00:04:52;19.35;;;8.20;;
11486;SDS011;10510;47.942;9.442;2023-05-16T00:06:53;13.82;;;6.35;;
11486;SDS011;10510;47.942;9.442;2023-05-16T00:08:53;11.82;;;6.03;;
11486;SDS011;10510;47.942;9.442;2023-05-16T00:10:54;9.88;;;5.82;;
11486;SDS011;10510;47.942;9.442;2023-05-16T00:12:54;8.60;;;5.60;;
11486;SDS011;10510;47.942;9.442;2023-05-16T00:14:55;7.70;;;4.75;;
11486;SDS011;10510;47.942;9.442;2023-05-16T00:16:56;7.78;;;4.82;;
11486;SDS011;10510;47.942;9.442;2023-05-16T00:18:59;7.28;;;3.83;;
11486;SDS011;10510;47.942;9.442;2023-05-16T00:21:02;7.93;;;3.65;;
11486;SDS011;10510;47.942;9.442;2023-05-16T00:23:03;27.35;;;4.10;;
11486;SDS011;10510;47.942;9.442;2023-05-16T00:25:03;50.75;;;4.32;;
11486;SDS011;10510;47.942;9.442;2023-05-16T00:27:04;40.38;;;4.32;;
11486;SDS011;10510;47.942;9.442;2023-05-16T00:29:04;13.02;;;4.57;;
11486;SDS011;10510;47.942;9.442;2023-05-16T00:31:05;6.95;;;3.83;;
11486;SDS011;10510;47.942;9.442;2023-05-16T00:33:06;6.35;;;3.72;;
11486;SDS011;10510;47.942;9.442;2023-05-16T00:35:06;6.70;;;3.97;;
11486;SDS011;10510;47.942;9.442;2023-05-16T00:37:09;6.18;;;3.83;;
11486;SDS011;10510;47.942;9.442;2023-05-16T00:39:09;5.28;;;3.65;;
11486;SDS011;10510;47.942;9.442;2023-05-16T00:41:10;6.70;;;3.10;;
11486;SDS011;10510;47.942;9.442;2023-05-16T00:43:10;5.78;;;3.45;;
11486;SDS011;10510;47.942;9.442;2023-05-16T00:45:11;5.72;;;3.60;;
11486;SDS011;10510;47.942;9.442;2023-05-16T00:47:11;4.45;;;3.25;;
11486;SDS011;10510;47.942;9.442;2023-05-16T00:49:11;6.20;;;3.70;;
11486;SDS011;10510;47.942;9.442;2023-05-16T00:51:12;5.35;;;3.45;;
11486;SDS011;10510;47.942;9.442;2023-05-16T00:53:12;6.72;;;4.22;;
11486;SDS011;10510;47.942;9.442;2023-05-16T00:55:12;7.15;;;4.00;;
11486;SDS011;10510;47.942;9.442;2023-05-16T00:57:13;6.93;;;3.70;;
11486;SDS011;10510;47.942;9.442;2023-05-16T00:59:15;6.20;;;3.80;;
11486;SDS011;10510;47.942;9.442;2023-05-16T01:01:15;5.35;;;3.58;;
11486;SDS011;10510;47.942;9.442;2023-05-16T01:03:16;8.65;;;3.38;;
11486;SDS011;10510;47.942;9.442;2023-05-16T01:05:16;7.28;;;2.60;;
11486;SDS011;10510;47.942;9.442;2023-05-16T01:07:16;4.57;;;2.88;;
11486;SDS011;10510;47.942;9.442;2023-05-16T01:09:17;4.78;;;2.88;;
11486;SDS011;10510;47.942;9.442;2023-05-16T01:11:23;6.05;;;2.78;;
11486;SDS011;10510;47.942;9.442;2023-05-16T01:16:04;8.02;;;3.45;;
11486;SDS011;10510;47.942;9.442;2023-05-16T01:27:28;5.35;;;3.60;;
11486;SDS011;10510;47.942;9.442;2023-05-16T01:29:30;5.40;;;3.10;;
11486;SDS011;10510;47.942;9.442;2023-05-16T01:31:30;6.47;;;3.78;;
11486;SDS011;10510;47.942;9.442;2023-05-16T01:33:31;5.40;;;3.17;;
11486;SDS011;10510;47.942;9.442;2023-05-16T01:35:31;9.50;;;3.53;;
11486;SDS011;10510;47.942;9.442;2023-05-16T01:37:36;6.85;;;4.28;;
11486;SDS011;10510;47.942;9.442;2023-05-16T01:39:43;8.23;;;4.97;;
11486;SDS011;10510;47.942;9.442;2023-05-16T01:41:50;7.93;;;4.32;;
11486;SDS011;10510;47.942;9.442;2023-05-16T01:44:04;13.73;;;5.65;;
11486;SDS011;10510;47.942;9.442;2023-05-16T01:46:10;8.13;;;5.13;;
11486;SDS011;10510;47.942;9.442;2023-05-16T01:48:15;11.18;;;5.45;;
11486;SDS011;10510;47.942;9.442;2023-05-16T01:50:19;9.13;;;5.35;;
11486;SDS011;10510;47.942;9.442;2023-05-16T01:52:26;9.48;;;5.00;;
11486;SDS011;10510;47.942;9.442;2023-05-16T01:54:31;11.13;;;4.15;;
11486;SDS011;10510;47.942;9.442;2023-05-16T01:56:32;10.57;;;4.68;;
11486;SDS011;10510;47.942;9.442;2023-05-16T01:58:34;8.02;;;5.00;;
11486;SDS011;10510;47.942;9.442;2023-05-16T02:00:36;9.32;;;4.45;;
11486;SDS011;10510;47.942;9.442;2023-05-16T02:02:36;7.93;;;4.72;;
11486;SDS011;10510;47.942;9.442;2023-05-16T02:04:36;7.93;;;4.55;;
11486;SDS011;10510;47.942;9.442;2023-05-16T02:06:36;8.45;;;5.13;;
11486;SDS011;10510;47.942;9.442;2023-05-16T02:08:37;7.78;;;4.75;;
11486;SDS011;10510;47.942;9.442;2023-05-16T02:10:37;8.55;;;4.72;;
11486;SDS011;10510;47.942;9.442;2023-05-16T02:12:39;14.32;;;4.68;;
11486;SDS011;10510;47.942;9.442;2023-05-16T02:14:39;10.00;;;5.43;;
11486;SDS011;10510;47.942;9.442;2023-05-16T02:16:39;8.77;;;5.20;;
11486;SDS011;10510;47.942;9.442;2023-05-16T02:18:39;11.82;;;5.22;;
11486;SDS011;10510;47.942;9.442;2023-05-16T02:20:40;9.23;;;5.22;;
11486;SDS011;10510;47.942;9.442;2023-05-16T02:22:40;9.25;;;5.50;;
11486;SDS011;10510;47.942;9.442;2023-05-16T02:24:45;7.80;;;4.47;;
11486;SDS011;10510;47.942;9.442;2023-05-16T02:26:46;9.63;;;5.13;;
11486;SDS011;10510;47.942;9.442;2023-05-16T02:28:46;9.57;;;5.10;;
11486;SDS011;10510;47.942;9.442;2023-05-16T02:30:55;10.63;;;5.22;;
11486;SDS011;10510;47.942;9.442;2023-05-16T02:32:59;9.90;;;5.38;;
11486;SDS011;10510;47.942;9.442;2023-05-16T02:34:59;9.77;;;4.82;;
11486;SDS011;10510;47.942;9.442;2023-05-16T02:37:00;10.77;;;6.20;;
11486;SDS011;10510;47.942;9.442;2023-05-16T02:39:00;11.43;;;6.50;;
11486;SDS011;10510;47.942;9.442;2023-05-16T02:41:01;17.17;;;7.63;;
11486;SDS011;10510;47.942;9.442;2023-05-16T02:43:01;14.27;;;8.95;;
11486;SDS011;10510;47.942;9.442;2023-05-16T02:45:01;17.48;;;9.60;;
11486;SDS011;10510;47.942;9.442;2023-05-16T02:47:02;18.55;;;9.05;;
11486;SDS011;10510;47.942;9.442;2023-05-16T02:49:02;15.88;;;9.15;;
11486;SDS011;10510;47.942;9.442;2023-05-16T02:51:02;14.27;;;8.07;;
11486;SDS011;10510;47.942;9.442;2023-05-16T02:53:03;16.38;;;8.50;;
11486;SDS011;10510;47.942;9.442;2023-05-16T02:55:03;16.15;;;8.30;;
11486;SDS011;10510;47.942;9.442;2023-05-16T02:57:05;16.83;;;7.57;;
11486;SDS011;10510;47.942;9.442;2023-05-16T02:59:05;12.60;;;7.13;;
11486;SDS011;10510;47.942;9.442;2023-05-16T03:01:05;11.95;;;6.78;;
11486;SDS011;10510;47.942;9.442;2023-05-16T03:03:06;14.73;;;6.72;;
11486;SDS011;10510;47.942;9.442;2023-05-16T03:05:06;17.15;;;7.13;;
11486;SDS011;10510;47.942;9.442;2023-05-16T03:07:07;10.02;;;6.47;;
11486;SDS011;10510;47.942;9.442;2023-05-16T03:09:07;10.52;;;6.28;;
11486;SDS011;10510;47.942;9.442;2023-05-16T03:11:07;9.90;;;6.53;;
11486;SDS011;10510;47.942;9.442;2023-05-16T03:13:08;11.00;;;6.25;;
11486;SDS011;10510;47.942;9.442;2023-05-16T03:15:08;11.75;;;6.22;;
11486;SDS011;10510;47.942;9.442;2023-05-16T03:17:09;10.68;;;6.15;;
11486;SDS011;10510;47.942;9.442;2023-05-16T03:19:09;9.48;;;5.68;;
11486;SDS011;10510;47.942;9.442;2023-05-16T03:21:09;9.90;;;6.05;;
11486;SDS011;10510;47.942;9.442;2023-05-16T03:23:10;11.30;;;6.00;;
11486;SDS011;10510;47.942;9.442;2023-05-16T03:25:10;13.52;;;6.28;;
11486;SDS011;10510;47.942;9.442;2023-05-16T03:27:10;8.13;;;5.18;;
11486;SDS011;10510;47.942;9.442;2023-05-16T03:29:11;14.25;;;6.00;;
11486;SDS011;10510;47.942;9.442;2023-05-16T03:31:11;10.48;;;6.38;;
11486;SDS011;10510;47.942;9.442;2023-05-16T03:33:11;11.98;;;6.18;;
11486;SDS011;10510;47.942;9.442;2023-05-16T03:35:12;8.07;;;5.45;;
11486;SDS011;10510;47.942;9.442;2023-05-16T03:37:12;8.27;;;5.63;;
11486;SDS011;10510;47.942;9.442;2023-05-16T03:39:15;9.40;;;5.88;;
11486;SDS011;10510;47.942;9.442;2023-05-16T03:41:15;10.90;;;5.90;;
11486;SDS011;10510;47.942;9.442;2023-05-16T03:43:16;9.77;;;5.43;;
11486;SDS011;10510;47.942;9.442;2023-05-16T03:45:16;13.07;;;6.93;;
11486;SDS011;10510;47.942;9.442;2023-05-16T03:47:16;8.88;;;5.75;;
11486;SDS011;10510;47.942;9.442;2023-05-16T03:49:16;12.02;;;6.25;;
11486;SDS011;10510;47.942;9.442;2023-05-16T03:51:18;11.25;;;7.22;;
11486;SDS011;10510;47.942;9.442;2023-05-16T03:53:18;10.00;;;6.13;;
11486;SDS011;10510;47.942;9.442;2023-05-16T03:55:19;10.60;;;7.00;;
11486;SDS011;10510;47.942;9.442;2023-05-16T03:57:19;12.07;;;6.90;;
11486;SDS011;10510;47.942;9.442;2023-05-16T03:59:20;11.88;;;6.72;;
11486;SDS011;10510;47.942;9.442;2023-05-16T04:01:20;13.82;;;7.05;;
11486;SDS011;10510;47.942;9.442;2023-05-16T04:03:21;12.10;;;7.05;;
11486;SDS011;10510;47.942;9.442;2023-05-16T04:05:27;20.17;;;7.30;;
11486;SDS011;10510;47.942;9.442;2023-05-16T04:07:28;12.13;;;7.03;;
11486;SDS011;10510;47.942;9.442;2023-05-16T04:09:28;15.30;;;8.68;;
11486;SDS011;10510;47.942;9.442;2023-05-16T04:11:28;15.93;;;8.52;;
11486;SDS011;10510;47.942;9.442;2023-05-16T04:13:28;14.60;;;8.60;;
11486;SDS011;10510;47.942;9.442;2023-05-16T04:15:29;14.80;;;7.60;;
11486;SDS011;10510;47.942;9.442;2023-05-16T04:17:29;17.23;;;8.27;;
11486;SDS011;10510;47.942;9.442;2023-05-16T04:19:30;15.15;;;7.28;;
11486;SDS011;10510;47.942;9.442;2023-05-16T04:21:30;14.45;;;7.68;;
11486;SDS011;10510;47.942;9.442;2023-05-16T04:23:30;14.23;;;6.90;;
11486;SDS011;10510;47.942;9.442;2023-05-16T04:25:31;14.35;;;7.10;;
11486;SDS011;10510;47.942;9.442;2023-05-16T04:27:31;15.18;;;7.15;;
11486;SDS011;10510;47.942;9.442;2023-05-16T04:29:32;13.32;;;8.35;;
11486;SDS011;10510;47.942;9.442;2023-05-16T04:31:32;10.82;;;5.93;;
11486;SDS011;10510;47.942;9.442;2023-05-16T04:33:33;11.23;;;6.13;;
11486;SDS011;10510;47.942;9.442;2023-05-16T04:35:33;9.63;;;5.60;;
11486;SDS011;10510;47.942;9.442;2023-05-16T04:37:34;10.57;;;6.20;;
11486;SDS011;10510;47.942;9.442;2023-05-16T04:39:34;11.82;;;6.97;;
11486;SDS011;10510;47.942;9.442;2023-05-16T04:41:35;11.75;;;6.75;;
11486;SDS011;10510;47.942;9.442;2023-05-16T04:43:35;16.73;;;7.15;;
11486;SDS011;10510;47.942;9.442;2023-05-16T04:45:36;16.63;;;6.80;;
11486;SDS011;10510;47.942;9.442;2023-05-16T04:47:37;19.73;;;7.35;;
11486;SDS011;10510;47.942;9.442;2023-05-16T04:49:37;14.52;;;6.70;;
11486;SDS011;10510;47.942;9.442;2023-05-16T04:51:38;14.18;;;7.72;;
11486;SDS011;10510;47.942;9.442;2023-05-16T04:53:38;13.10;;;6.88;;
11486;SDS011;10510;47.942;9.442;2023-05-16T04:55:38;13.63;;;7.70;;
11486;SDS011;10510;47.942;9.442;2023-05-16T04:57:38;16.35;;;8.55;;
11486;SDS011;10510;47.942;9.442;2023-05-16T04:59:39;16.52;;;9.05;;
11486;SDS011;10510;47.942;9.442;2023-05-16T05:01:39;18.67;;;9.55;;
11486;SDS011;10510;47.942;9.442;2023-05-16T05:03:39;16.67;;;8.50;;
11486;SDS011;10510;47.942;9.442;2023-05-16T05:05:40;13.10;;;8.02;;
11486;SDS011;10510;47.942;9.442;2023-05-16T05:07:40;14.52;;;8.57;;
11486;SDS011;10510;47.942;9.442;2023-05-16T05:09:40;14.35;;;8.57;;
11486;SDS011;10510;47.942;9.442;2023-05-16T05:11:41;16.05;;;8.50;;
11486;SDS011;10510;47.942;9.442;2023-05-16T05:13:42;22.40;;;10.63;;
11486;SDS011;10510;47.942;9.442;2023-05-16T05:15:42;27.52;;;13.65;;
11486;SDS011;10510;47.942;9.442;2023-05-16T05:17:42;28.17;;;14.35;;
11486;SDS011;10510;47.942;9.442;2023-05-16T05:19:42;53.67;;;23.08;;
11486;SDS011;10510;47.942;9.442;2023-05-16T05:21:43;44.80;;;19.98;;
11486;SDS011;10510;47.942;9.442;2023-05-16T05:23:43;40.55;;;18.73;;
11486;SDS011;10510;47.942;9.442;2023-05-16T05:25:45;40.22;;;18.88;;
11486;SDS011;10510;47.942;9.442;2023-05-16T05:27:45;45.33;;;19.55;;
11486;SDS011;10510;47.942;9.442;2023-05-16T05:29:45;49.30;;;19.73;;
11486;SDS011;10510;47.942;9.442;2023-05-16T05:31:46;46.40;;;19.80;;
11486;SDS011;10510;47.942;9.442;2023-05-16T05:33:46;47.90;;;20.58;;
11486;SDS011;10510;47.942;9.442;2023-05-16T05:35:46;46.20;;;20.70;;
11486;SDS011;10510;47.942;9.442;2023-05-16T05:37:47;48.17;;;20.92;;
11486;SDS011;10510;47.942;9.442;2023-05-16T05:39:47;44.88;;;19.83;;
11486;SDS011;10510;47.942;9.442;2023-05-16T05:41:48;41.58;;;20.42;;
11486;SDS011;10510;47.942;9.442;2023-05-16T05:43:48;52.33;;;20.55;;
11486;SDS011;10510;47.942;9.442;2023-05-16T05:45:48;54.58;;;22.10;;
11486;SDS011;10510;47.942;9.442;2023-05-16T05:47:49;53.00;;;21.77;;
11486;SDS011;10510;47.942;9.442;2023-05-16T05:49:49;55.58;;;22.67;;
11486;SDS011;10510;47.942;9.442;2023-05-16T05:51:50;49.05;;;22.98;;
11486;SDS011;10510;47.942;9.442;2023-05-16T05:53:53;67.03;;;23.20;;
11486;SDS011;10510;47.942;9.442;2023-05-16T05:55:54;60.03;;;22.65;;
11486;SDS011;10510;47.942;9.442;2023-05-16T05:57:55;60.40;;;23.75;;
11486;SDS011;10510;47.942;9.442;2023-05-16T05:59:55;62.42;;;24.35;;
11486;SDS011;10510;47.942;9.442;2023-05-16T06:01:55;66.75;;;23.67;;
11486;SDS011;10510;47.942;9.442;2023-05-16T06:03:56;65.00;;;25.08;;
11486;SDS011;10510;47.942;9.442;2023-05-16T06:05:57;65.80;;;26.73;;
11486;SDS011;10510;47.942;9.442;2023-05-16T06:07:57;61.58;;;24.83;;
11486;SDS011;10510;47.942;9.442;2023-05-16T06:09:57;68.63;;;25.13;;
11486;SDS011;10510;47.942;9.442;2023-05-16T06:11:58;71.75;;;27.30;;
11486;SDS011;10510;47.942;9.442;2023-05-16T06:13:59;62.60;;;26.27;;
11486;SDS011;10510;47.942;9.442;2023-05-16T06:15:59;69.72;;;27.15;;
11486;SDS011;10510;47.942;9.442;2023-05-16T06:17:59;59.60;;;26.00;;
11486;SDS011;10510;47.942;9.442;2023-05-16T06:19:59;65.80;;;27.75;;
11486;SDS011;10510;47.942;9.442;2023-05-16T06:22:00;73.43;;;28.08;;
11486;SDS011;10510;47.942;9.442;2023-05-16T06:24:00;70.40;;;28.13;;
11486;SDS011;10510;47.942;9.442;2023-05-16T06:26:01;72.72;;;28.77;;
11486;SDS011;10510;47.942;9.442;2023-05-16T06:28:02;64.05;;;27.95;;
11486;SDS011;10510;47.942;9.442;2023-05-16T06:30:02;77.18;;;30.20;;
11486;SDS011;10510;47.942;9.442;2023-05-16T06:32:03;73.35;;;30.17;;
11486;SDS011;10510;47.942;9.442;2023-05-16T06:34:03;60.80;;;27.33;;
11486;SDS011;10510;47.942;9.442;2023-05-16T06:36:04;65.00;;;28.35;;
11486;SDS011;10510;47.942;9.442;2023-05-16T06:38:04;58.72;;;26.67;;
11486;SDS011;10510;47.942;9.442;2023-05-16T06:40:05;64.97;;;27.65;;
11486;SDS011;10510;47.942;9.442;2023-05-16T06:42:06;54.38;;;26.00;;
11486;SDS011;10510;47.942;9.442;2023-05-16T06:44:06;55.13;;;26.08;;
11486;SDS011;10510;47.942;9.442;2023-05-16T06:46:06;58.75;;;26.63;;
11486;SDS011;10510;47.942;9.442;2023-05-16T06:48:07;54.35;;;26.38;;
11486;SDS011;10510;47.942;9.442;2023-05-16T06:50:07;51.28;;;25.27;;
11486;SDS011;10510;47.942;9.442;2023-05-16T06:52:09;53.17;;;25.80;;
11486;SDS011;10510;47.942;9.442;2023-05-16T06:54:09;52.50;;;26.95;;
11486;SDS011;10510;47.942;9.442;2023-05-16T06:56:09;43.05;;;25.15;;
11486;SDS011;10510;47.942;9.442;2023-05-16T06:58:10;50.35;;;27.15;;
11486;SDS011;10510;47.942;9.442;2023-05-16T07:00:10;35.95;;;22.20;;
11486;SDS011;10510;47.942;9.442;2023-05-16T07:02:11;44.13;;;23.98;;
11486;SDS011;10510;47.942;9.442;2023-05-16T07:04:11;45.55;;;22.27;;
11486;SDS011;10510;47.942;9.442;2023-05-16T07:06:12;43.30;;;24.00;;
11486;SDS011;10510;47.942;9.442;2023-05-16T07:08:12;40.53;;;22.85;;
11486;SDS011;10510;47.942;9.442;2023-05-16T07:10:12;38.85;;;21.67;;
11486;SDS011;10510;47.942;9.442;2023-05-16T07:12:12;37.92;;;22.23;;
11486;SDS011;10510;47.942;9.442;2023-05-16T07:14:13;46.67;;;22.70;;
11486;SDS011;10510;47.942;9.442;2023-05-16T07:16:13;34.42;;;22.05;;
11486;SDS011;10510;47.942;9.442;2023-05-16T07:18:13;36.78;;;23.08;;
11486;SDS011;10510;47.942;9.442;2023-05-16T07:20:13;35.13;;;21.63;;
11486;SDS011;10510;47.942;9.442;2023-05-16T07:22:14;32.47;;;20.10;;
11486;SDS011;10510;47.942;9.442;2023-05-16T07:24:14;34.83;;;21.05;;
11486;SDS011;10510;47.942;9.442;2023-05-16T07:26:15;36.55;;;20.95;;
11486;SDS011;10510;47.942;9.442;2023-05-16T07:28:15;32.42;;;19.70;;
11486;SDS011;10510;47.942;9.442;2023-05-16T07:30:16;35.95;;;20.13;;
11486;SDS011;10510;47.942;9.442;2023-05-16T07:32:16;34.55;;;19.08;;
11486;SDS011;10510;47.942;9.442;2023-05-16T07:34:17;35.40;;;19.40;;
11486;SDS011;10510;47.942;9.442;2023-05-16T07:36:17;30.50;;;19.52;;
11486;SDS011;10510;47.942;9.442;2023-05-16T07:38:17;31.00;;;19.23;;
11486;SDS011;10510;47.942;9.442;2023-05-16T07:40:18;29.98;;;18.85;;
11486;SDS011;10510;47.942;9.442;2023-05-16T07:42:20;27.83;;;18.33;;
11486;SDS011;10510;47.942;9.442;2023-05-16T07:44:20;33.75;;;20.05;;
11486;SDS011;10510;47.942;9.442;2023-05-16T07:46:20;27.92;;;17.67;;
11486;SDS011;10510;47.942;9.442;2023-05-16T07:48:21;30.42;;;18.77;;
11486;SDS011;10510;47.942;9.442;2023-05-16T07:50:22;30.10;;;19.63;;
11486;SDS011;10510;47.942;9.442;2023-05-16T07:52:22;29.48;;;19.08;;
11486;SDS011;10510;47.942;9.442;2023-05-16T07:54:22;31.50;;;18.50;;
11486;SDS011;10510;47.942;9.442;2023-05-16T07:56:23;29.42;;;19.08;;
11486;SDS011;10510;47.942;9.442;2023-05-16T07:58:23;30.80;;;18.52;;
11486;SDS011;10510;47.942;9.442;2023-05-16T08:00:23;33.28;;;19.00;;
11486;SDS011;10510;47.942;9.442;2023-05-16T08:02:24;27.95;;;17.88;;
11486;SDS011;10510;47.942;9.442;2023-05-16T08:04:29;28.90;;;18.45;;
11486;SDS011;10510;47.942;9.442;2023-05-16T08:06:29;30.17;;;18.67;;
11486;SDS011;10510;47.942;9.442;2023-05-16T08:08:30;31.25;;;18.75;;
11486;SDS011;10510;47.942;9.442;2023-05-16T08:10:30;28.25;;;18.45;;
11486;SDS011;10510;47.942;9.442;2023-05-16T08:12:31;29.17;;;18.83;;
11486;SDS011;10510;47.942;9.442;2023-05-16T08:14:31;36.72;;;18.98;;
11486;SDS011;10510;47.942;9.442;2023-05-16T08:16:31;27.13;;;17.83;;
11486;SDS011;10510;47.942;9.442;2023-05-16T08:18:32;26.17;;;17.45;;
11486;SDS011;10510;47.942;9.442;2023-05-16T08:20:32;26.65;;;18.27;;
11486;SDS011;10510;47.942;9.442;2023-05-16T08:22:32;29.63;;;18.45;;
11486;SDS011;10510;47.942;9.442;2023-05-16T08:24:33;33.55;;;19.95;;
11486;SDS011;10510;47.942;9.442;2023-05-16T08:26:33;33.63;;;19.35;;
11486;SDS011;10510;47.942;9.442;2023-05-16T08:28:34;29.80;;;18.67;;
11486;SDS011;10510;47.942;9.442;2023-05-16T08:30:35;31.70;;;18.90;;
11486;SDS011;10510;47.942;9.442;2023-05-16T08:32:35;32.28;;;19.33;;
11486;SDS011;10510;47.942;9.442;2023-05-16T08:34:36;34.03;;;19.77;;
11486;SDS011;10510;47.942;9.442;2023-05-16T08:36:36;31.20;;;18.50;;
11486;SDS011;10510;47.942;9.442;2023-05-16T08:38:36;30.30;;;18.02;;
11486;SDS011;10510;47.942;9.442;2023-05-16T08:40:37;35.53;;;19.08;;
11486;SDS011;10510;47.942;9.442;2023-05-16T08:42:38;30.67;;;18.17;;
11486;SDS011;10510;47.942;9.442;2023-05-16T08:44:39;30.63;;;18.35;;
11486;SDS011;10510;47.942;9.442;2023-05-16T08:46:39;33.85;;;18.17;;
11486;SDS011;10510;47.942;9.442;2023-05-16T08:48:40;32.65;;;18.27;;
11486;SDS011;10510;47.942;9.442;2023-05-16T08:50:45;32.22;;;18.48;;
11486;SDS011;10510;47.942;9.442;2023-05-16T08:52:45;29.35;;;18.05;;
11486;SDS011;10510;47.942;9.442;2023-05-16T08:54:46;34.00;;;17.95;;
11486;SDS011;10510;47.942;9.442;2023-05-16T08:56:50;29.40;;;17.50;;
11486;SDS011;10510;47.942;9.442;2023-05-16T08:58:50;37.25;;;19.30;;
11486;SDS011;10510;47.942;9.442;2023-05-16T09:00:54;34.28;;;19.35;;
11486;SDS011;10510;47.942;9.442;2023-05-16T09:02:55;43.08;;;21.90;;
11486;SDS011;10510;47.942;9.442;2023-05-16T09:04:55;36.42;;;21.00;;
11486;SDS011;10510;47.942;9.442;2023-05-16T09:06:56;37.10;;;21.00;;
11486;SDS011;10510;47.942;9.442;2023-05-16T09:08:57;41.88;;;24.08;;
11486;SDS011;10510;47.942;9.442;2023-05-16T09:10:57;38.75;;;22.15;;
11486;SDS011;10510;47.942;9.442;2023-05-16T09:12:57;35.08;;;20.55;;
11486;SDS011;10510;47.942;9.442;2023-05-16T09:14:59;38.42;;;22.08;;
11486;SDS011;10510;47.942;9.442;2023-05-16T09:17:07;42.22;;;21.13;;
11486;SDS011;10510;47.942;9.442;2023-05-16T09:19:11;42.10;;;21.88;;
11486;SDS011;10510;47.942;9.442;2023-05-16T09:21:12;39.47;;;22.02;;
11486;SDS011;10510;47.942;9.442;2023-05-16T09:23:12;44.50;;;21.77;;
11486;SDS011;10510;47.942;9.442;2023-05-16T09:25:15;41.65;;;23.73;;
11486;SDS011;10510;47.942;9.442;2023-05-16T09:27:16;44.35;;;22.90;;
11486;SDS011;10510;47.942;9.442;2023-05-16T09:29:16;42.47;;;22.75;;
11486;SDS011;10510;47.942;9.442;2023-05-16T09:31:21;41.50;;;23.67;;
11486;SDS011;10510;47.942;9.442;2023-05-16T09:33:25;40.67;;;22.13;;
11486;SDS011;10510;47.942;9.442;2023-05-16T09:35:27;44.65;;;23.38;;
11486;SDS011;10510;47.942;9.442;2023-05-16T09:37:27;46.83;;;22.08;;
11486;SDS011;10510;47.942;9.442;2023-05-16T09:39:29;38.63;;;21.75;;
11486;SDS011;10510;47.942;9.442;2023-05-16T09:41:32;39.55;;;22.63;;
11486;SDS011;10510;47.942;9.442;2023-05-16T09:43:36;42.33;;;21.90;;
11486;SDS011;10510;47.942;9.442;2023-05-16T09:45:38;36.83;;;21.38;;
11486;SDS011;10510;47.942;9.442;2023-05-16T09:47:45;38.63;;;21.20;;
11486;SDS011;10510;47.942;9.442;2023-05-16T09:49:45;38.88;;;22.50;;
11486;SDS011;10510;47.942;9.442;2023-05-16T09:51:50;49.72;;;25.48;;
11486;SDS011;10510;47.942;9.442;2023-05-16T09:53:51;41.80;;;24.25;;
11486;SDS011;10510;47.942;9.442;2023-05-16T09:58:11;38.95;;;20.50;;
11486;SDS011;10510;47.942;9.442;2023-05-16T10:00:16;38.80;;;22.00;;
11486;SDS011;10510;47.942;9.442;2023-05-16T10:02:17;42.88;;;22.85;;
11486;SDS011;10510;47.942;9.442;2023-05-16T10:04:18;38.50;;;22.00;;
11486;SDS011;10510;47.942;9.442;2023-05-16T10:06:18;40.58;;;22.08;;
11486;SDS011;10510;47.942;9.442;2023-05-16T10:08:30;44.42;;;23.35;;
11486;SDS011;10510;47.942;9.442;2023-05-16T10:10:35;46.05;;;23.25;;
11486;SDS011;10510;47.942;9.442;2023-05-16T10:12:37;54.20;;;28.45;;
11486;SDS011;10510;47.942;9.442;2023-05-16T10:14:38;46.35;;;22.73;;
11486;SDS011;10510;47.942;9.442;2023-05-16T10:16:41;48.67;;;25.60;;
11486;SDS011;10510;47.942;9.442;2023-05-16T10:18:43;46.45;;;23.85;;
11486;SDS011;10510;47.942;9.442;2023-05-16T10:20:45;49.30;;;25.30;;
11486;SDS011;10510;47.942;9.442;2023-05-16T10:22:48;46.13;;;24.98;;
11486;SDS011;10510;47.942;9.442;2023-05-16T10:27:03;47.25;;;23.65;;
11486;SDS011;10510;47.942;9.442;2023-05-16T10:29:04;44.33;;;22.63;;
11486;SDS011;10510;47.942;9.442;2023-05-16T10:31:06;48.10;;;25.15;;
11486;SDS011;10510;47.942;9.442;2023-05-16T10:33:12;69.93;;;32.10;;
11486;SDS011;10510;47.942;9.442;2023-05-16T10:35:13;48.00;;;26.00;;
11486;SDS011;10510;47.942;9.442;2023-05-16T10:37:14;50.58;;;24.55;;
11486;SDS011;10510;47.942;9.442;2023-05-16T10:39:15;44.67;;;23.58;;
11486;SDS011;10510;47.942;9.442;2023-05-16T10:41:16;39.45;;;22.75;;
11486;SDS011;10510;47.942;9.442;2023-05-16T10:43:24;36.38;;;21.45;;
11486;SDS011;10510;47.942;9.442;2023-05-16T10:45:26;41.35;;;20.70;;
11486;SDS011;10510;47.942;9.442;2023-05-16T10:47:27;40.35;;;21.20;;
11486;SDS011;10510;47.942;9.442;2023-05-16T10:49:28;34.67;;;20.08;;
11486;SDS011;10510;47.942;9.442;2023-05-16T10:51:36;38.17;;;21.25;;
11486;SDS011;10510;47.942;9.442;2023-05-16T10:53:37;35.67;;;20.23;;
11486;SDS011;10510;47.942;9.442;2023-05-16T10:55:38;37.55;;;21.27;;
11486;SDS011;10510;47.942;9.442;2023-05-16T10:57:38;41.25;;;20.55;;
11486;SDS011;10510;47.942;9.442;2023-05-16T10:59:39;39.20;;;19.40;;
11486;SDS011;10510;47.942;9.442;2023-05-16T11:01:41;36.15;;;20.73;;
11486;SDS011;10510;47.942;9.442;2023-05-16T11:04:15;32.58;;;17.52;;
11486;SDS011;10510;47.942;9.442;2023-05-16T11:06:10;37.00;;;18.77;;
11486;SDS011;10510;47.942;9.442;2023-05-16T11:08:10;33.47;;;18.42;;
11486;SDS011;10510;47.942;9.442;2023-05-16T11:10:14;38.15;;;19.55;;
11486;SDS011;10510;47.942;9.442;2023-05-16T11:12:15;36.78;;;20.27;;
11486;SDS011;10510;47.942;9.442;2023-05-16T11:14:22;31.75;;;17.05;;
11486;SDS011;10510;47.942;9.442;2023-05-16T11:16:58;30.45;;;17.05;;
11486;SDS011;10510;47.942;9.442;2023-05-16T11:19:04;33.58;;;18.52;;
11486;SDS011;10510;47.942;9.442;2023-05-16T11:21:06;27.95;;;16.95;;
11486;SDS011;10510;47.942;9.442;2023-05-16T11:25:15;29.45;;;17.27;;
11486;SDS011;10510;47.942;9.442;2023-05-16T11:27:34;29.13;;;17.52;;
11486;SDS011;10510;47.942;9.442;2023-05-16T11:29:36;25.35;;;14.25;;
11486;SDS011;10510;47.942;9.442;2023-05-16T11:31:36;27.73;;;15.90;;
11486;SDS011;10510;47.942;9.442;2023-05-16T11:33:36;25.80;;;13.25;;
11486;SDS011;10510;47.942;9.442;2023-05-16T11:35:39;22.33;;;13.50;;
11486;SDS011;10510;47.942;9.442;2023-05-16T11:37:39;28.23;;;14.82;;
11486;SDS011;10510;47.942;9.442;2023-05-16T11:39:39;25.02;;;14.93;;
11486;SDS011;10510;47.942;9.442;2023-05-16T11:41:40;23.30;;;14.32;;
11486;SDS011;10510;47.942;9.442;2023-05-16T11:43:41;29.85;;;16.42;;
11486;SDS011;10510;47.942;9.442;2023-05-16T11:45:43;22.08;;;14.02;;
11486;SDS011;10510;47.942;9.442;2023-05-16T11:47:45;27.10;;;16.15;;
11486;SDS011;10510;47.942;9.442;2023-05-16T11:49:46;25.27;;;14.07;;
11486;SDS011;10510;47.942;9.442;2023-05-16T11:51:47;30.15;;;15.68;;
11486;SDS011;10510;47.942;9.442;2023-05-16T11:53:48;24.65;;;15.40;;
11486;SDS011;10510;47.942;9.442;2023-05-16T11:55:49;25.65;;;14.93;;
11486;SDS011;10510;47.942;9.442;2023-05-16T11:57:51;24.90;;;14.38;;
11486;SDS011;10510;47.942;9.442;2023-05-16T11:59:52;23.83;;;15.27;;
11486;SDS011;10510;47.942;9.442;2023-05-16T12:01:53;26.65;;;15.10;;
11486;SDS011;10510;47.942;9.442;2023-05-16T12:03:56;27.50;;;15.85;;
11486;SDS011;10510;47.942;9.442;2023-05-16T12:05:57;25.60;;;14.85;;
11486;SDS011;10510;47.942;9.442;2023-05-16T12:07:57;21.75;;;13.57;;
11486;SDS011;10510;47.942;9.442;2023-05-16T12:09:58;28.80;;;14.30;;
11486;SDS011;10510;47.942;9.442;2023-05-16T12:11:58;23.15;;;13.25;;
11486;SDS011;10510;47.942;9.442;2023-05-16T12:13:59;28.92;;;14.05;;